sensor_id;sensor_type;location;lat;lon;timestamp;pressure;altitude;pressure_sealevel;temperature;humidity
79250;BME280;68679;51.030;7.584;2023-03-23T00:01:00;98012.91;;;10.04;75.14
79250;BME280;68679;51.030;7.584;2023-03-23T00:03:26;98009.53;;;10.04;74.81
79250;BME280;68679;51.030;7.584;2023-03-23T00:05:54;98007.69;;;10.04;74.99
79250;BME280;68679;51.030;7.584;2023-03-23T00:08:24;98008.16;;;10.06;74.48
79250;BME280;68679;51.030;7.584;2023-03-23T00:10:52;97999.81;;;10.04;74.74
79250;BME280;68679;51.030;7.584;2023-03-23T00:13:21;97999.81;;;10.04;74.78
79250;BME280;68679;51.030;7.584;2023-03-23T00:15:47;98000.31;;;10.06;74.71
79250;BME280;68679;51.030;7.584;2023-03-23T00:18:14;97996.13;;;10.05;74.94
79250;BME280;68679;51.030;7.584;2023-03-23T00:20:47;97997.69;;;10.06;74.52
79250;BME280;68679;51.030;7.584;2023-03-23T00:23:15;97996.13;;;10.05;74.28
79250;BME280;68679;51.030;7.584;2023-03-23T00:25:48;98000.59;;;10.05;74.58
79250;BME280;68679;51.030;7.584;2023-03-23T00:28:15;97996.44;;;10.04;74.63
79250;BME280;68679;51.030;7.584;2023-03-23T00:30:41;97995.97;;;10.02;74.77
79250;BME280;68679;51.030;7.584;2023-03-23T00:33:09;97978.66;;;10.01;74.94
79250;BME280;68679;51.030;7.584;2023-03-23T00:35:38;97972.66;;;10.00;75.02
79250;BME280;68679;51.030;7.584;2023-03-23T00:38:03;97975.09;;;9.97;75.21
79250;BME280;68679;51.030;7.584;2023-03-23T00:40:29;97978.50;;;9.97;75.24
79250;BME280;68679;51.030;7.584;2023-03-23T00:42:55;97976.66;;;9.98;75.29
79250;BME280;68679;51.030;7.584;2023-03-23T00:45:20;97975.56;;;9.99;75.18
79250;BME280;68679;51.030;7.584;2023-03-23T00:47:46;97984.81;;;9.96;75.34
79250;BME280;68679;51.030;7.584;2023-03-23T00:50:16;97983.72;;;9.97;75.09
79250;BME280;68679;51.030;7.584;2023-03-23T00:52:43;97972.50;;;9.97;74.99
79250;BME280;68679;51.030;7.584;2023-03-23T00:55:08;97972.50;;;9.97;75.10
79250;BME280;68679;51.030;7.584;2023-03-23T00:57:33;97969.38;;;9.94;75.52
79250;BME280;68679;51.030;7.584;2023-03-23T00:59:59;97986.16;;;9.93;75.31
79250;BME280;68679;51.030;7.584;2023-03-23T01:02:24;97981.69;;;9.94;75.24
79250;BME280;68679;51.030;7.584;2023-03-23T01:04:50;97974.13;;;9.92;75.35
79250;BME280;68679;51.030;7.584;2023-03-23T01:07:18;97972.59;;;9.91;75.56
79250;BME280;68679;51.030;7.584;2023-03-23T01:09:43;97972.28;;;9.93;75.43
79250;BME280;68679;51.030;7.584;2023-03-23T01:12:10;97974.72;;;9.89;75.67
79250;BME280;68679;51.030;7.584;2023-03-23T01:14:35;97966.38;;;9.87;75.94
79250;BME280;68679;51.030;7.584;2023-03-23T01:17:01;97952.50;;;9.87;76.08
79250;BME280;68679;51.030;7.584;2023-03-23T01:19:26;97962.22;;;9.86;75.84
79250;BME280;68679;51.030;7.584;2023-03-23T01:21:51;97946.03;;;9.84;75.80
79250;BME280;68679;51.030;7.584;2023-03-23T01:24:16;97944.19;;;9.85;76.10
79250;BME280;68679;51.030;7.584;2023-03-23T01:26:42;97942.13;;;9.82;76.23
79250;BME280;68679;51.030;7.584;2023-03-23T01:29:07;97942.44;;;9.80;76.52
79250;BME280;68679;51.030;7.584;2023-03-23T01:31:33;97937.19;;;9.80;76.65
79250;BME280;68679;51.030;7.584;2023-03-23T01:33:59;97938.47;;;9.83;76.95
79250;BME280;68679;51.030;7.584;2023-03-23T01:36:27;97941.97;;;9.78;76.65
79250;BME280;68679;51.030;7.584;2023-03-23T01:38:54;97938.84;;;9.76;76.96
79250;BME280;68679;51.030;7.584;2023-03-23T01:41:21;97936.91;;;9.82;76.70
79250;BME280;68679;51.030;7.584;2023-03-23T01:43:57;97937.78;;;9.77;76.69
79250;BME280;68679;51.030;7.584;2023-03-23T01:46:25;97933.03;;;9.79;76.69
79250;BME280;68679;51.030;7.584;2023-03-23T01:48:51;97936.44;;;9.80;76.76
79250;BME280;68679;51.030;7.584;2023-03-23T01:51:18;97938.75;;;9.81;76.41
79250;BME280;68679;51.030;7.584;2023-03-23T01:53:57;97936.63;;;9.83;76.40
79250;BME280;68679;51.030;7.584;2023-03-23T01:56:28;97936.31;;;9.85;76.61
79250;BME280;68679;51.030;7.584;2023-03-23T01:58:58;97940.78;;;9.84;76.64
79250;BME280;68679;51.030;7.584;2023-03-23T02:01:23;97940.00;;;9.84;76.63
79250;BME280;68679;51.030;7.584;2023-03-23T02:03:52;97945.81;;;9.81;77.23
79250;BME280;68679;51.030;7.584;2023-03-23T02:06:17;97946.31;;;9.83;76.89
79250;BME280;68679;51.030;7.584;2023-03-23T02:08:43;97945.25;;;9.84;76.96
79250;BME280;68679;51.030;7.584;2023-03-23T02:11:20;97947.09;;;9.83;76.82
79250;BME280;68679;51.030;7.584;2023-03-23T02:13:46;97945.81;;;9.81;77.42
79250;BME280;68679;51.030;7.584;2023-03-23T02:16:31;97946.31;;;9.83;77.11
79250;BME280;68679;51.030;7.584;2023-03-23T02:24:30;97934.56;;;9.80;77.51
79250;BME280;68679;51.030;7.584;2023-03-23T02:27:01;97943.50;;;9.79;77.95
79250;BME280;68679;51.030;7.584;2023-03-23T02:29:52;97936.50;;;9.75;78.17
79250;BME280;68679;51.030;7.584;2023-03-23T02:32:46;97953.50;;;9.77;77.88
79250;BME280;68679;51.030;7.584;2023-03-23T02:35:40;97963.97;;;9.77;77.98
79250;BME280;68679;51.030;7.584;2023-03-23T02:38:16;97962.13;;;9.78;77.71
79250;BME280;68679;51.030;7.584;2023-03-23T02:40:46;97943.03;;;9.77;77.90
79250;BME280;68679;51.030;7.584;2023-03-23T02:43:15;97961.34;;;9.77;78.22
79250;BME280;68679;51.030;7.584;2023-03-23T02:45:43;97955.03;;;9.78;77.77
79250;BME280;68679;51.030;7.584;2023-03-23T02:48:11;97931.59;;;9.73;78.17
79250;BME280;68679;51.030;7.584;2023-03-23T02:50:39;97935.94;;;9.78;78.24
79250;BME280;68679;51.030;7.584;2023-03-23T02:53:09;97938.16;;;9.71;78.15
79250;BME280;68679;51.030;7.584;2023-03-23T02:55:37;97942.81;;;9.74;77.96
79250;BME280;68679;51.030;7.584;2023-03-23T02:58:07;97926.34;;;9.73;77.66
79250;BME280;68679;51.030;7.584;2023-03-23T03:00:33;97910.63;;;9.73;77.89
79250;BME280;68679;51.030;7.584;2023-03-23T03:02:58;97918.03;;;9.71;78.10
79250;BME280;68679;51.030;7.584;2023-03-23T03:10:29;97864.41;;;9.68;78.34
79250;BME280;68679;51.030;7.584;2023-03-23T03:13:03;97881.94;;;9.68;77.64
79250;BME280;68679;51.030;7.584;2023-03-23T03:15:37;97891.44;;;9.64;78.13
79250;BME280;68679;51.030;7.584;2023-03-23T03:18:08;97877.59;;;9.63;78.04
79250;BME280;68679;51.030;7.584;2023-03-23T03:20:38;97864.31;;;9.60;78.27
79250;BME280;68679;51.030;7.584;2023-03-23T03:23:06;97877.31;;;9.65;77.92
79250;BME280;68679;51.030;7.584;2023-03-23T03:25:33;97877.88;;;9.62;77.99
79250;BME280;68679;51.030;7.584;2023-03-23T03:27:59;97875.25;;;9.62;77.80
79250;BME280;68679;51.030;7.584;2023-03-23T03:30:27;97867.72;;;9.60;77.81
79250;BME280;68679;51.030;7.584;2023-03-23T03:32:56;97858.31;;;9.59;78.08
79250;BME280;68679;51.030;7.584;2023-03-23T03:35:25;97863.56;;;9.59;77.89
79250;BME280;68679;51.030;7.584;2023-03-23T03:37:51;97861.97;;;9.58;77.92
79250;BME280;68679;51.030;7.584;2023-03-23T03:40:20;97853.66;;;9.56;77.79
79250;BME280;68679;51.030;7.584;2023-03-23T03:42:46;97869.81;;;9.58;77.35
79250;BME280;68679;51.030;7.584;2023-03-23T03:45:17;97875.06;;;9.58;77.52
79250;BME280;68679;51.030;7.584;2023-03-23T03:47:43;97885.06;;;9.56;77.52
79250;BME280;68679;51.030;7.584;2023-03-23T03:50:09;97889.53;;;9.56;77.60
79250;BME280;68679;51.030;7.584;2023-03-23T03:52:35;97897.38;;;9.56;77.71
79250;BME280;68679;51.030;7.584;2023-03-23T03:55:00;97900.28;;;9.54;78.18
79250;BME280;68679;51.030;7.584;2023-03-23T03:57:26;97900.97;;;9.60;77.85
79250;BME280;68679;51.030;7.584;2023-03-23T03:59:51;97896.59;;;9.55;77.58
79250;BME280;68679;51.030;7.584;2023-03-23T04:02:17;97901.94;;;9.50;78.29
79250;BME280;68679;51.030;7.584;2023-03-23T04:04:46;97905.00;;;9.52;77.68
79250;BME280;68679;51.030;7.584;2023-03-23T04:07:12;97909.78;;;9.50;77.96
79250;BME280;68679;51.030;7.584;2023-03-23T04:09:42;97904.06;;;9.48;78.11
79250;BME280;68679;51.030;7.584;2023-03-23T04:12:08;97904.06;;;9.48;77.96
79250;BME280;68679;51.030;7.584;2023-03-23T04:14:34;97903.47;;;9.51;78.00
79250;BME280;68679;51.030;7.584;2023-03-23T04:16:59;97917.16;;;9.48;78.14
79250;BME280;68679;51.030;7.584;2023-03-23T04:19:25;97898.53;;;9.50;77.83
79250;BME280;68679;51.030;7.584;2023-03-23T04:21:51;97899.31;;;9.50;77.88
79250;BME280;68679;51.030;7.584;2023-03-23T04:24:16;97903.47;;;9.51;78.18
79250;BME280;68679;51.030;7.584;2023-03-23T04:26:46;97908.69;;;9.51;77.91
79250;BME280;68679;51.030;7.584;2023-03-23T04:29:11;97909.00;;;9.50;77.81
79250;BME280;68679;51.030;7.584;2023-03-23T04:31:38;97910.84;;;9.49;77.82
79250;BME280;68679;51.030;7.584;2023-03-23T04:34:04;97910.63;;;9.46;77.80
79250;BME280;68679;51.030;7.584;2023-03-23T04:36:29;97893.41;;;9.45;78.21
79250;BME280;68679;51.030;7.584;2023-03-23T04:38:55;97904.16;;;9.43;78.36
79250;BME280;68679;51.030;7.584;2023-03-23T04:41:23;97905.69;;;9.44;78.07
79250;BME280;68679;51.030;7.584;2023-03-23T04:43:49;97907.84;;;9.42;78.40
79250;BME280;68679;51.030;7.584;2023-03-23T04:46:17;97903.38;;;9.43;78.43
79250;BME280;68679;51.030;7.584;2023-03-23T04:48:44;97888.00;;;9.41;78.41
79250;BME280;68679;51.030;7.584;2023-03-23T04:51:10;97903.38;;;9.43;78.46
79250;BME280;68679;51.030;7.584;2023-03-23T04:53:37;97895.84;;;9.41;78.26
79250;BME280;68679;51.030;7.584;2023-03-23T04:56:03;97892.72;;;9.39;78.49
79250;BME280;68679;51.030;7.584;2023-03-23T04:58:29;97908.13;;;9.40;78.25
79250;BME280;68679;51.030;7.584;2023-03-23T05:00:55;97901.84;;;9.42;78.55
79250;BME280;68679;51.030;7.584;2023-03-23T05:03:20;97904.72;;;9.40;78.56
79250;BME280;68679;51.030;7.584;2023-03-23T05:05:46;97900.84;;;9.37;78.55
79250;BME280;68679;51.030;7.584;2023-03-23T05:08:17;97898.72;;;9.39;78.25
79250;BME280;68679;51.030;7.584;2023-03-23T05:10:53;97903.19;;;9.39;78.44
79250;BME280;68679;51.030;7.584;2023-03-23T05:13:18;97915.19;;;9.40;78.47
79250;BME280;68679;51.030;7.584;2023-03-23T05:15:44;97899.78;;;9.38;78.36
79250;BME280;68679;51.030;7.584;2023-03-23T05:18:09;97905.03;;;9.38;78.25
79250;BME280;68679;51.030;7.584;2023-03-23T05:20:36;97898.72;;;9.39;78.64
79250;BME280;68679;51.030;7.584;2023-03-23T05:23:02;97900.09;;;9.37;78.49
79250;BME280;68679;51.030;7.584;2023-03-23T05:25:27;97908.13;;;9.40;78.43
79250;BME280;68679;51.030;7.584;2023-03-23T05:27:53;97912.41;;;9.36;78.37
79250;BME280;68679;51.030;7.584;2023-03-23T05:30:20;97914.53;;;9.34;78.63
79250;BME280;68679;51.030;7.584;2023-03-23T05:32:47;97914.25;;;9.36;78.57
79250;BME280;68679;51.030;7.584;2023-03-23T05:35:16;97905.88;;;9.34;78.79
79250;BME280;68679;51.030;7.584;2023-03-23T05:37:42;97909.31;;;9.34;78.68
79250;BME280;68679;51.030;7.584;2023-03-23T05:40:09;97913.47;;;9.35;78.43
79250;BME280;68679;51.030;7.584;2023-03-23T05:42:37;97910.56;;;9.37;78.48
79250;BME280;68679;51.030;7.584;2023-03-23T05:45:03;97909.00;;;9.36;78.76
79250;BME280;68679;51.030;7.584;2023-03-23T05:47:29;97916.00;;;9.40;78.45
79250;BME280;68679;51.030;7.584;2023-03-23T05:49:55;97912.31;;;9.42;78.01
79250;BME280;68679;51.030;7.584;2023-03-23T05:52:21;97910.75;;;9.40;78.36
79250;BME280;68679;51.030;7.584;2023-03-23T05:54:46;97908.91;;;9.41;78.45
79250;BME280;68679;51.030;7.584;2023-03-23T05:57:12;97903.19;;;9.39;78.39
79250;BME280;68679;51.030;7.584;2023-03-23T05:59:37;97914.41;;;9.39;78.47
79250;BME280;68679;51.030;7.584;2023-03-23T06:02:03;97908.91;;;9.41;78.30
79250;BME280;68679;51.030;7.584;2023-03-23T06:04:29;97912.56;;;9.40;78.62
79250;BME280;68679;51.030;7.584;2023-03-23T06:06:55;97917.53;;;9.42;78.64
79250;BME280;68679;51.030;7.584;2023-03-23T06:09:21;97915.41;;;9.44;78.29
79250;BME280;68679;51.030;7.584;2023-03-23T06:11:48;97917.25;;;9.43;78.28
79250;BME280;68679;51.030;7.584;2023-03-23T06:14:13;97926.63;;;9.44;78.28
79250;BME280;68679;51.030;7.584;2023-03-23T06:16:39;97927.41;;;9.45;78.35
79250;BME280;68679;51.030;7.584;2023-03-23T06:19:04;97925.09;;;9.43;79.02
79250;BME280;68679;51.030;7.584;2023-03-23T06:21:31;97932.94;;;9.43;78.56
79250;BME280;68679;51.030;7.584;2023-03-23T06:23:57;97932.94;;;9.43;78.48
79250;BME280;68679;51.030;7.584;2023-03-23T06:26:27;97940.00;;;9.43;78.76
79250;BME280;68679;51.030;7.584;2023-03-23T06:28:53;97934.78;;;9.43;78.59
79250;BME280;68679;51.030;7.584;2023-03-23T06:31:19;97941.84;;;9.42;78.72
79250;BME280;68679;51.030;7.584;2023-03-23T06:33:45;97937.09;;;9.44;78.59
79250;BME280;68679;51.030;7.584;2023-03-23T06:36:12;97936.03;;;9.45;78.36
79250;BME280;68679;51.030;7.584;2023-03-23T06:38:38;97945.44;;;9.46;78.65
79250;BME280;68679;51.030;7.584;2023-03-23T06:41:03;97944.56;;;9.51;78.81
79250;BME280;68679;51.030;7.584;2023-03-23T06:43:29;97944.25;;;9.52;78.25
79250;BME280;68679;51.030;7.584;2023-03-23T06:45:58;97955.53;;;9.53;78.46
79250;BME280;68679;51.030;7.584;2023-03-23T06:48:23;97949.22;;;9.54;78.38
79250;BME280;68679;51.030;7.584;2023-03-23T06:50:49;97952.63;;;9.54;78.80
79250;BME280;68679;51.030;7.584;2023-03-23T06:53:14;97940.78;;;9.57;78.78
79250;BME280;68679;51.030;7.584;2023-03-23T06:55:43;97947.09;;;9.56;79.10
79250;BME280;68679;51.030;7.584;2023-03-23T06:58:08;97950.47;;;9.56;79.28
79250;BME280;68679;51.030;7.584;2023-03-23T07:00:34;97949.13;;;9.59;79.17
79250;BME280;68679;51.030;7.584;2023-03-23T07:03:00;97950.09;;;9.63;79.08
79250;BME280;68679;51.030;7.584;2023-03-23T07:05:26;97952.63;;;9.68;79.11
79250;BME280;68679;51.030;7.584;2023-03-23T07:07:52;97954.47;;;9.67;79.01
79250;BME280;68679;51.030;7.584;2023-03-23T07:10:17;97956.13;;;9.77;78.26
79250;BME280;68679;51.030;7.584;2023-03-23T07:12:43;97961.63;;;9.76;78.41
79250;BME280;68679;51.030;7.584;2023-03-23T07:15:09;97968.59;;;9.80;78.44
79250;BME280;68679;51.030;7.584;2023-03-23T07:17:36;97966.47;;;9.82;78.49
79250;BME280;68679;51.030;7.584;2023-03-23T07:20:03;97963.34;;;9.94;77.49
79250;BME280;68679;51.030;7.584;2023-03-23T07:22:28;97978.13;;;9.90;77.16
79250;BME280;68679;51.030;7.584;2023-03-23T07:24:53;97969.66;;;9.93;77.09
79250;BME280;68679;51.030;7.584;2023-03-23T07:27:19;97972.28;;;9.93;77.23
79250;BME280;68679;51.030;7.584;2023-03-23T07:29:44;97974.13;;;9.92;76.73
79250;BME280;68679;51.030;7.584;2023-03-23T07:32:11;97977.44;;;9.98;76.03
79250;BME280;68679;51.030;7.584;2023-03-23T07:34:37;97972.50;;;9.97;76.98
79250;BME280;68679;51.030;7.584;2023-03-23T07:37:03;97974.50;;;10.00;76.73
79250;BME280;68679;51.030;7.584;2023-03-23T07:39:28;97981.03;;;10.02;75.78
79250;BME280;68679;51.030;7.584;2023-03-23T07:41:54;97981.97;;;10.06;76.06
79250;BME280;68679;51.030;7.584;2023-03-23T07:44:19;97978.09;;;10.04;75.52
79250;BME280;68679;51.030;7.584;2023-03-23T07:46:45;97977.22;;;10.08;75.34
79250;BME280;68679;51.030;7.584;2023-03-23T07:49:10;97977.22;;;10.08;76.21
79250;BME280;68679;51.030;7.584;2023-03-23T07:51:36;97975.09;;;10.10;75.80
79250;BME280;68679;51.030;7.584;2023-03-23T07:54:05;97966.47;;;10.10;75.69
79250;BME280;68679;51.030;7.584;2023-03-23T07:56:33;97977.59;;;10.15;75.68
79250;BME280;68679;51.030;7.584;2023-03-23T07:58:58;97971.28;;;10.16;75.69
79250;BME280;68679;51.030;7.584;2023-03-23T08:01:24;97982.84;;;10.15;75.29
79250;BME280;68679;51.030;7.584;2023-03-23T08:03:50;97981.19;;;10.19;75.22
79250;BME280;68679;51.030;7.584;2023-03-23T08:06:17;97989.47;;;10.27;74.82
79250;BME280;68679;51.030;7.584;2023-03-23T08:08:42;97984.38;;;10.30;74.47
79250;BME280;68679;51.030;7.584;2023-03-23T08:11:07;97979.34;;;10.34;74.47
79250;BME280;68679;51.030;7.584;2023-03-23T08:13:33;97977.19;;;10.36;74.02
79250;BME280;68679;51.030;7.584;2023-03-23T08:15:59;97974.28;;;10.37;73.97
79250;BME280;68679;51.030;7.584;2023-03-23T08:18:29;97981.84;;;10.39;73.19
79250;BME280;68679;51.030;7.584;2023-03-23T08:20:54;97980.31;;;10.38;74.61
79250;BME280;68679;51.030;7.584;2023-03-23T08:23:19;97970.38;;;10.48;73.11
79250;BME280;68679;51.030;7.584;2023-03-23T08:25:47;97964.91;;;10.59;71.34
79250;BME280;68679;51.030;7.584;2023-03-23T08:28:12;97966.63;;;10.63;71.24
79250;BME280;68679;51.030;7.584;2023-03-23T08:30:39;97963.72;;;10.65;71.76
79250;BME280;68679;51.030;7.584;2023-03-23T08:33:05;97965.25;;;10.66;71.62
79250;BME280;68679;51.030;7.584;2023-03-23T08:35:31;97965.47;;;10.69;71.19
79250;BME280;68679;51.030;7.584;2023-03-23T08:37:57;97968.06;;;10.69;72.54
79250;BME280;68679;51.030;7.584;2023-03-23T08:40:23;97962.72;;;10.74;70.51
79250;BME280;68679;51.030;7.584;2023-03-23T08:42:50;97965.03;;;10.76;70.33
79250;BME280;68679;51.030;7.584;2023-03-23T08:45:18;97968.47;;;10.85;69.84
79250;BME280;68679;51.030;7.584;2023-03-23T08:47:44;97972.06;;;10.89;69.96
79250;BME280;68679;51.030;7.584;2023-03-23T08:50:13;97984.59;;;10.92;69.41
79250;BME280;68679;51.030;7.584;2023-03-23T08:52:39;97968.44;;;10.99;68.74
79250;BME280;68679;51.030;7.584;2023-03-23T08:55:05;97975.16;;;10.91;69.70
79250;BME280;68679;51.030;7.584;2023-03-23T08:57:30;97984.75;;;10.96;69.05
79250;BME280;68679;51.030;7.584;2023-03-23T08:59:56;97980.78;;;10.98;69.33
79250;BME280;68679;51.030;7.584;2023-03-23T09:02:26;97979.41;;;11.01;68.27
79250;BME280;68679;51.030;7.584;2023-03-23T09:04:52;97980.94;;;11.02;69.01
79250;BME280;68679;51.030;7.584;2023-03-23T09:07:18;97983.09;;;11.00;69.81
79250;BME280;68679;51.030;7.584;2023-03-23T09:09:43;97982.66;;;11.07;67.36
79250;BME280;68679;51.030;7.584;2023-03-23T09:12:09;97982.97;;;11.05;67.84
79250;BME280;68679;51.030;7.584;2023-03-23T09:14:36;97979.28;;;11.06;67.89
79250;BME280;68679;51.030;7.584;2023-03-23T09:17:02;97988.09;;;11.10;67.46
79250;BME280;68679;51.030;7.584;2023-03-23T09:19:29;97990.72;;;11.10;67.30
79250;BME280;68679;51.030;7.584;2023-03-23T09:21:54;97988.25;;;11.14;66.83
79250;BME280;68679;51.030;7.584;2023-03-23T09:24:20;97987.38;;;11.18;66.19
79250;BME280;68679;51.030;7.584;2023-03-23T09:26:46;97997.22;;;11.13;67.36
79250;BME280;68679;51.030;7.584;2023-03-23T09:29:12;98012.06;;;11.17;66.63
79250;BME280;68679;51.030;7.584;2023-03-23T09:31:38;98007.09;;;11.16;67.21
79250;BME280;68679;51.030;7.584;2023-03-23T09:34:05;97998.97;;;11.26;66.09
79250;BME280;68679;51.030;7.584;2023-03-23T09:36:31;98007.19;;;11.33;65.17
79250;BME280;68679;51.030;7.584;2023-03-23T09:38:57;98014.31;;;11.33;66.17
79250;BME280;68679;51.030;7.584;2023-03-23T09:44:36;98023.47;;;11.44;65.51
79250;BME280;68679;51.030;7.584;2023-03-23T09:47:38;98016.13;;;11.54;66.02
79250;BME280;68679;51.030;7.584;2023-03-23T09:52:43;98004.56;;;11.64;65.03
79250;BME280;68679;51.030;7.584;2023-03-23T09:55:13;98014.63;;;11.71;64.71
79250;BME280;68679;51.030;7.584;2023-03-23T09:58:00;98015.44;;;11.71;65.11
79250;BME280;68679;51.030;7.584;2023-03-23T10:00:30;98013.81;;;11.84;63.11
79250;BME280;68679;51.030;7.584;2023-03-23T10:03:21;98018.13;;;11.89;63.92
79250;BME280;68679;51.030;7.584;2023-03-23T10:05:51;98009.47;;;11.88;63.85
79250;BME280;68679;51.030;7.584;2023-03-23T10:08:21;98023.38;;;11.89;63.64
79250;BME280;68679;51.030;7.584;2023-03-23T10:11:06;98029.13;;;11.91;60.43
79250;BME280;68679;51.030;7.584;2023-03-23T10:16:20;98036.00;;;11.78;61.77
79250;BME280;68679;51.030;7.584;2023-03-23T10:18:50;98029.50;;;11.75;61.89
79250;BME280;68679;51.030;7.584;2023-03-23T10:21:22;98027.47;;;11.72;62.41
79250;BME280;68679;51.030;7.584;2023-03-23T10:23:56;98033.00;;;11.62;62.50
79250;BME280;68679;51.030;7.584;2023-03-23T10:26:33;98029.91;;;11.60;62.66
79250;BME280;68679;51.030;7.584;2023-03-23T10:29:12;98033.09;;;11.48;64.00
79250;BME280;68679;51.030;7.584;2023-03-23T10:31:49;98031.16;;;11.40;65.49
79250;BME280;68679;51.030;7.584;2023-03-23T10:34:35;98043.50;;;11.40;66.54
79250;BME280;68679;51.030;7.584;2023-03-23T10:37:11;98053.56;;;11.38;66.41
79250;BME280;68679;51.030;7.584;2023-03-23T10:39:44;98058.75;;;11.29;66.94
79250;BME280;68679;51.030;7.584;2023-03-23T10:42:09;98054.97;;;11.21;67.56
79250;BME280;68679;51.030;7.584;2023-03-23T10:44:35;98047.06;;;11.13;68.82
79250;BME280;68679;51.030;7.584;2023-03-23T10:47:06;98031.44;;;11.08;68.95
79250;BME280;68679;51.030;7.584;2023-03-23T10:49:37;98038.84;;;11.06;70.48
79250;BME280;68679;51.030;7.584;2023-03-23T10:54:37;98031.97;;;11.18;70.85
79250;BME280;68679;51.030;7.584;2023-03-23T10:57:34;98028.16;;;11.24;70.36
79250;BME280;68679;51.030;7.584;2023-03-23T11:00:03;98032.38;;;11.34;70.04
79250;BME280;68679;51.030;7.584;2023-03-23T11:02:39;98043.81;;;11.38;70.37
79250;BME280;68679;51.030;7.584;2023-03-23T11:05:15;98041.97;;;11.39;69.55
79250;BME280;68679;51.030;7.584;2023-03-23T11:07:48;98044.13;;;11.37;70.70
79250;BME280;68679;51.030;7.584;2023-03-23T11:10:20;98041.31;;;11.33;70.80
79250;BME280;68679;51.030;7.584;2023-03-23T11:12:45;98042.41;;;11.32;71.16
79250;BME280;68679;51.030;7.584;2023-03-23T11:15:28;98050.75;;;11.34;71.20
79250;BME280;68679;51.030;7.584;2023-03-23T11:18:00;98052.91;;;11.32;70.94
79250;BME280;68679;51.030;7.584;2023-03-23T11:20:28;98053.34;;;11.34;70.61
79250;BME280;68679;51.030;7.584;2023-03-23T11:22:55;98048.13;;;11.34;70.68
79250;BME280;68679;51.030;7.584;2023-03-23T11:25:21;98043.66;;;11.35;70.51
79250;BME280;68679;51.030;7.584;2023-03-23T11:27:47;98039.19;;;11.35;70.34
79250;BME280;68679;51.030;7.584;2023-03-23T11:30:31;98035.63;;;11.40;71.07
79250;BME280;68679;51.030;7.584;2023-03-23T11:33:00;98041.25;;;11.47;70.18
79250;BME280;68679;51.030;7.584;2023-03-23T11:35:28;98032.91;;;11.45;70.95
79250;BME280;68679;51.030;7.584;2023-03-23T11:37:55;98029.69;;;11.48;69.96
79250;BME280;68679;51.030;7.584;2023-03-23T11:40:27;98033.09;;;11.48;70.84
79250;BME280;68679;51.030;7.584;2023-03-23T11:42:59;98024.31;;;11.53;70.46
79250;BME280;68679;51.030;7.584;2023-03-23T11:45:35;98034.53;;;11.63;70.23
79250;BME280;68679;51.030;7.584;2023-03-23T11:48:15;98024.34;;;11.62;68.49
79250;BME280;68679;51.030;7.584;2023-03-23T11:50:54;98027.75;;;11.71;68.44
79250;BME280;68679;51.030;7.584;2023-03-23T11:56:05;98028.25;;;11.73;68.89
79250;BME280;68679;51.030;7.584;2023-03-23T11:58:31;98016.34;;;11.75;68.88
79250;BME280;68679;51.030;7.584;2023-03-23T12:04:13;98000.97;;;11.82;68.49
79250;BME280;68679;51.030;7.584;2023-03-23T12:06:13;98001.47;;;11.93;66.90
79250;BME280;68679;51.030;7.584;2023-03-23T12:11:41;98004.56;;;11.95;67.10
79250;BME280;68679;51.030;7.584;2023-03-23T12:14:13;98010.59;;;11.96;67.07
79250;BME280;68679;51.030;7.584;2023-03-23T12:16:51;98007.81;;;12.01;66.37
79250;BME280;68679;51.030;7.584;2023-03-23T12:19:30;97999.66;;;12.02;66.59
79250;BME280;68679;51.030;7.584;2023-03-23T12:22:12;97996.25;;;12.02;66.93
79250;BME280;68679;51.030;7.584;2023-03-23T12:24:56;98002.72;;;12.04;66.42
79250;BME280;68679;51.030;7.584;2023-03-23T12:27:35;97985.56;;;12.07;65.69
79250;BME280;68679;51.030;7.584;2023-03-23T12:41:18;97978.50;;;12.16;66.38
79250;BME280;68679;51.030;7.584;2023-03-23T12:46:59;98001.88;;;12.26;65.42
79250;BME280;68679;51.030;7.584;2023-03-23T12:49:21;98007.44;;;12.33;64.91
79250;BME280;68679;51.030;7.584;2023-03-23T12:52:21;98009.94;;;12.39;64.06
79250;BME280;68679;51.030;7.584;2023-03-23T12:54:55;98008.84;;;12.48;63.18
79250;BME280;68679;51.030;7.584;2023-03-23T12:57:31;98018.44;;;12.53;62.77
79250;BME280;68679;51.030;7.584;2023-03-23T13:00:15;98005.47;;;12.56;62.24
79250;BME280;68679;51.030;7.584;2023-03-23T13:02:57;98010.09;;;12.59;61.87
79250;BME280;68679;51.030;7.584;2023-03-23T13:08:01;98015.19;;;12.65;61.38
79250;BME280;68679;51.030;7.584;2023-03-23T13:10:35;98006.09;;;12.62;61.29
79250;BME280;68679;51.030;7.584;2023-03-23T13:13:02;98013.97;;;12.62;61.48
79250;BME280;68679;51.030;7.584;2023-03-23T13:15:46;98005.28;;;12.61;61.58
79250;BME280;68679;51.030;7.584;2023-03-23T13:18:30;98018.59;;;12.65;60.31
79250;BME280;68679;51.030;7.584;2023-03-23T13:21:09;98021.06;;;12.61;61.07
79250;BME280;68679;51.030;7.584;2023-03-23T13:24:00;98023.56;;;12.58;61.72
79250;BME280;68679;51.030;7.584;2023-03-23T13:26:29;98021.88;;;12.62;60.99
79250;BME280;68679;51.030;7.584;2023-03-23T13:29:06;98023.25;;;12.59;60.72
79250;BME280;68679;51.030;7.584;2023-03-23T13:31:38;98009.31;;;12.59;60.10
79250;BME280;68679;51.030;7.584;2023-03-23T13:34:25;98007.16;;;12.52;60.80
79250;BME280;68679;51.030;7.584;2023-03-23T13:42:56;98000.66;;;12.58;60.20
79250;BME280;68679;51.030;7.584;2023-03-23T13:48:24;98005.28;;;12.61;60.61
79250;BME280;68679;51.030;7.584;2023-03-23T13:50:56;98011.78;;;12.55;61.21
79250;BME280;68679;51.030;7.584;2023-03-23T13:53:46;98014.41;;;12.47;62.27
79250;BME280;68679;51.030;7.584;2023-03-23T13:56:41;98015.50;;;12.46;61.32
79250;BME280;68679;51.030;7.584;2023-03-23T13:59:13;98015.50;;;12.46;61.79
79250;BME280;68679;51.030;7.584;2023-03-23T14:01:40;98021.06;;;12.53;61.54
79250;BME280;68679;51.030;7.584;2023-03-23T14:04:14;98017.84;;;12.56;61.28
79250;BME280;68679;51.030;7.584;2023-03-23T14:06:40;98006.22;;;12.48;62.00
79250;BME280;68679;51.030;7.584;2023-03-23T14:12:01;98012.41;;;12.52;61.79
79250;BME280;68679;51.030;7.584;2023-03-23T14:14:39;98004.06;;;12.59;60.77